Time;durP1;ratioP1;P1;durP2;ratioP2;P2;SDS_P1;SDS_P2;PMS_P1;PMS_P2;Temp;Humidity;BMP_temperature;BMP_pressure;BME280_temperature;BME280_humidity;BME280_pressure;Samples;Min_cycle;Max_cycle;Signal;HPM_P1;HPM_P2
2021/10/10 00:00:51;;;;;;;13.70;10.90;;;9.50;99.90;;;;;;5016300;28;20203;-79
2021/10/10 00:03:18;;;;;;;14.57;10.53;;;9.40;99.90;;;;;;5021044;28;20476;-81
2021/10/10 00:05:45;;;;;;;15.20;11.07;;;9.40;99.90;;;;;;5016950;28;20544;-81
2021/10/10 00:08:12;;;;;;;16.05;10.45;;;9.40;99.90;;;;;;5017228;28;20538;-81
2021/10/10 00:10:39;;;;;;;12.83;10.57;;;9.40;99.90;;;;;;5013910;28;20206;-80
2021/10/10 00:13:05;;;;;;;13.60;10.60;;;9.40;99.90;;;;;;5016388;28;20537;-80
2021/10/10 00:15:32;;;;;;;16.10;10.23;;;9.40;99.90;;;;;;5016022;28;20453;-81
2021/10/10 00:18:01;;;;;;;14.80;11.10;;;9.40;99.90;;;;;;5016705;28;20237;-81
2021/10/10 00:20:28;;;;;;;19.30;10.90;;;9.30;99.90;;;;;;5016335;28;20457;-81
2021/10/10 00:22:54;;;;;;;15.10;10.40;;;9.20;99.90;;;;;;5017844;28;20480;-81
2021/10/10 00:25:21;;;;;;;12.73;10.20;;;9.20;99.90;;;;;;5023277;28;20528;-79
2021/10/10 00:27:48;;;;;;;15.90;10.40;;;9.20;99.90;;;;;;5021323;28;20460;-78
2021/10/10 00:30:17;;;;;;;15.27;10.25;;;9.10;99.90;;;;;;5022287;28;20958;-80
2021/10/10 00:32:43;;;;;;;13.70;10.10;;;9.10;99.90;;;;;;5018798;28;20305;-80
2021/10/10 00:35:14;;;;;;;18.30;10.50;;;9.00;99.90;;;;;;5016261;28;20555;-79
2021/10/10 00:37:41;;;;;;;15.02;10.25;;;9.00;99.90;;;;;;5017070;28;20444;-79
2021/10/10 00:40:09;;;;;;;16.98;10.45;;;9.00;99.90;;;;;;5015807;28;20371;-79
2021/10/10 00:42:36;;;;;;;16.60;11.07;;;9.10;99.90;;;;;;5016819;28;20608;-81
2021/10/10 00:45:03;;;;;;;15.60;11.17;;;9.00;99.90;;;;;;5013857;28;20196;-80
2021/10/10 00:47:30;;;;;;;16.63;11.95;;;9.00;99.90;;;;;;5005508;28;20459;-81
2021/10/10 00:49:57;;;;;;;14.93;10.40;;;9.00;99.90;;;;;;5002793;28;20293;-80
2021/10/10 00:52:27;;;;;;;14.15;10.40;;;9.00;99.90;;;;;;5016951;28;20234;-81
2021/10/10 00:54:56;;;;;;;13.73;10.02;;;9.00;99.90;;;;;;5004807;28;20198;-81
2021/10/10 00:57:25;;;;;;;12.85;9.38;;;8.90;99.90;;;;;;5013908;28;20201;-81
2021/10/10 00:59:54;;;;;;;12.68;9.65;;;8.90;99.90;;;;;;5016587;28;20203;-80
2021/10/10 01:02:20;;;;;;;12.93;9.30;;;8.80;99.90;;;;;;5021218;28;20728;-81
2021/10/10 01:04:47;;;;;;;18.83;9.98;;;8.80;99.90;;;;;;5019662;28;20213;-80
2021/10/10 01:07:14;;;;;;;17.05;10.27;;;8.80;99.90;;;;;;5020465;28;20315;-81
2021/10/10 01:09:43;;;;;;;13.65;9.80;;;8.80;99.90;;;;;;5016688;28;20213;-81
2021/10/10 01:12:10;;;;;;;16.65;10.25;;;8.80;99.90;;;;;;5032614;28;20313;-80
2021/10/10 01:14:38;;;;;;;14.75;9.38;;;8.70;99.90;;;;;;5024465;28;20212;-78
2021/10/10 01:17:06;;;;;;;14.13;9.15;;;8.80;99.90;;;;;;5030603;28;20293;-79
2021/10/10 01:19:34;;;;;;;16.25;10.98;;;8.70;99.90;;;;;;5014522;28;20221;-79
2021/10/10 01:22:04;;;;;;;15.52;9.00;;;8.70;99.90;;;;;;5013619;28;20220;-80
2021/10/10 01:24:31;;;;;;;15.55;9.90;;;8.60;99.90;;;;;;5003431;28;20192;-80
2021/10/10 01:26:58;;;;;;;12.85;8.77;;;8.50;99.90;;;;;;5004794;28;20264;-80
2021/10/10 01:29:25;;;;;;;15.18;10.48;;;8.50;99.90;;;;;;5004797;28;20215;-80
2021/10/10 01:31:52;;;;;;;15.70;10.52;;;8.50;99.90;;;;;;5005305;28;20252;-80
2021/10/10 01:34:19;;;;;;;13.02;9.55;;;8.40;99.90;;;;;;5002070;28;20210;-80
2021/10/10 01:36:46;;;;;;;13.38;9.23;;;8.50;99.90;;;;;;5011848;28;20229;-78
2021/10/10 01:39:14;;;;;;;15.73;10.43;;;8.50;99.90;;;;;;5017544;28;20209;-82
2021/10/10 01:41:41;;;;;;;14.40;9.70;;;8.60;99.90;;;;;;5019331;28;20232;-79
2021/10/10 01:44:13;;;;;;;13.82;10.00;;;8.50;99.90;;;;;;5023359;28;20204;-80
2021/10/10 01:46:40;;;;;;;16.30;10.30;;;8.50;99.90;;;;;;5020874;28;20214;-80
2021/10/10 01:49:07;;;;;;;14.45;10.85;;;8.30;99.90;;;;;;5021652;28;20207;-81
2021/10/10 01:51:34;;;;;;;17.77;10.88;;;8.50;99.90;;;;;;5021376;28;20328;-81
2021/10/10 01:54:01;;;;;;;16.13;10.13;;;8.50;99.90;;;;;;5018481;28;20204;-80
2021/10/10 01:56:29;;;;;;;16.98;9.48;;;8.30;99.90;;;;;;5021462;28;20197;-81
2021/10/10 01:58:56;;;;;;;18.73;9.77;;;8.30;99.90;;;;;;5015053;28;20200;-80
2021/10/10 02:01:23;;;;;;;16.55;11.20;;;8.10;99.90;;;;;;5019818;28;20239;-80
2021/10/10 02:03:50;;;;;;;13.43;9.40;;;8.30;99.90;;;;;;5018332;28;20211;-80
2021/10/10 02:06:17;;;;;;;17.33;10.40;;;8.20;99.90;;;;;;5016085;28;20669;-80
2021/10/10 02:08:44;;;;;;;14.18;10.25;;;8.30;99.90;;;;;;5018664;28;20544;-80
2021/10/10 02:11:10;;;;;;;20.05;11.50;;;8.20;99.90;;;;;;5017603;28;20248;-80
2021/10/10 02:13:39;;;;;;;16.50;9.90;;;8.20;99.90;;;;;;5017952;28;20279;-80
2021/10/10 02:16:06;;;;;;;14.77;10.05;;;8.20;99.90;;;;;;5008702;28;20208;-80
2021/10/10 02:18:32;;;;;;;14.85;10.68;;;8.20;99.90;;;;;;5017723;28;20201;-80
2021/10/10 02:20:59;;;;;;;14.90;9.98;;;8.10;99.90;;;;;;5015283;28;20251;-79
2021/10/10 02:23:26;;;;;;;13.07;9.55;;;7.80;99.90;;;;;;4999001;28;20537;-79
2021/10/10 02:25:54;;;;;;;14.70;10.77;;;8.10;99.90;;;;;;5006626;28;20201;-79
2021/10/10 02:28:21;;;;;;;16.08;11.07;;;8.10;99.90;;;;;;5017909;28;20206;-80
2021/10/10 02:30:49;;;;;;;16.75;10.95;;;8.00;99.90;;;;;;5020960;28;20296;-80
2021/10/10 02:33:17;;;;;;;14.15;10.13;;;7.90;99.90;;;;;;5019233;28;20230;-79
2021/10/10 02:35:44;;;;;;;13.35;10.30;;;8.00;99.90;;;;;;5020124;28;20208;-79
2021/10/10 02:38:11;;;;;;;16.20;9.90;;;8.00;99.90;;;;;;5017318;28;20205;-80
2021/10/10 02:40:38;;;;;;;16.73;10.55;;;8.00;99.90;;;;;;5017723;28;20580;-81
2021/10/10 02:43:05;;;;;;;18.30;12.05;;;7.90;99.90;;;;;;5017722;28;20321;-81
2021/10/10 02:45:32;;;;;;;15.80;10.63;;;8.10;99.90;;;;;;5017457;28;20209;-81
2021/10/10 02:48:00;;;;;;;14.35;10.32;;;8.00;99.90;;;;;;5019040;28;20224;-80
2021/10/10 02:50:27;;;;;;;15.70;10.35;;;8.00;99.90;;;;;;5017664;28;20300;-79
2021/10/10 02:52:55;;;;;;;16.30;10.60;;;7.80;99.90;;;;;;5040652;23;20327;-78
2021/10/10 02:55:22;;;;;;;18.20;10.40;;;7.90;99.90;;;;;;5016966;28;20204;-78
2021/10/10 02:57:49;;;;;;;13.93;10.40;;;7.80;99.90;;;;;;5017960;28;20209;-79
2021/10/10 03:00:16;;;;;;;14.15;9.70;;;7.80;99.90;;;;;;5017914;28;20224;-80
2021/10/10 03:02:42;;;;;;;13.93;9.70;;;7.80;99.90;;;;;;5006040;28;20228;-79
2021/10/10 03:05:11;;;;;;;17.05;10.30;;;7.80;99.90;;;;;;4998114;28;20233;-78
2021/10/10 03:07:38;;;;;;;16.10;10.27;;;7.70;99.90;;;;;;4997378;28;20221;-79
2021/10/10 03:10:05;;;;;;;14.55;10.75;;;7.70;99.90;;;;;;5014747;28;20204;-78
2021/10/10 03:12:32;;;;;;;19.48;11.00;;;7.80;99.90;;;;;;5000187;28;20233;-79
2021/10/10 03:14:59;;;;;;;16.45;10.45;;;7.60;99.90;;;;;;4999040;28;20219;-79
2021/10/10 03:17:26;;;;;;;15.95;10.55;;;7.80;99.90;;;;;;5017765;28;20299;-79
2021/10/10 03:19:53;;;;;;;19.88;10.32;;;7.70;99.90;;;;;;5017036;28;20203;-79
2021/10/10 03:22:21;;;;;;;16.83;10.20;;;7.60;99.90;;;;;;5016975;28;20228;-79
2021/10/10 03:24:47;;;;;;;16.17;9.43;;;7.70;99.90;;;;;;5017883;28;20208;-79
2021/10/10 03:27:14;;;;;;;13.50;10.38;;;7.60;99.90;;;;;;5009338;28;20248;-79
2021/10/10 03:29:41;;;;;;;16.38;9.65;;;7.70;99.90;;;;;;5017108;28;20206;-79
2021/10/10 03:32:08;;;;;;;14.35;10.35;;;7.40;99.90;;;;;;5018606;28;20732;-77
2021/10/10 03:34:35;;;;;;;14.65;9.90;;;7.60;99.90;;;;;;5010781;28;20280;-77
2021/10/10 03:37:01;;;;;;;21.25;10.48;;;7.60;99.90;;;;;;5018867;28;20200;-79
2021/10/10 03:39:30;;;;;;;16.20;10.10;;;7.40;99.90;;;;;;5019036;28;20303;-78
2021/10/10 03:41:56;;;;;;;13.80;8.90;;;7.60;99.90;;;;;;5017772;28;20228;-79
2021/10/10 03:44:23;;;;;;;14.65;10.35;;;7.50;99.90;;;;;;5017412;28;20208;-79
2021/10/10 03:46:50;;;;;;;12.60;9.10;;;7.40;99.90;;;;;;5016916;28;20568;-78
2021/10/10 03:49:17;;;;;;;14.30;9.90;;;7.60;99.90;;;;;;5016447;28;20206;-79
2021/10/10 03:51:44;;;;;;;13.15;9.60;;;7.30;99.90;;;;;;5015655;28;20741;-78
2021/10/10 03:56:56;;;;;;;17.40;10.35;;;7.50;99.90;;;;;;5007020;28;20715;-79
2021/10/10 03:59:24;;;;;;;16.23;10.52;;;7.30;99.90;;;;;;5016465;28;20744;-78
2021/10/10 04:01:51;;;;;;;13.80;9.50;;;7.20;99.90;;;;;;5016534;28;20254;-79
2021/10/10 04:04:18;;;;;;;14.40;10.75;;;7.30;99.90;;;;;;5016987;28;20207;-79
2021/10/10 04:06:45;;;;;;;15.43;10.38;;;7.20;99.90;;;;;;5016137;28;20226;-78
2021/10/10 04:09:11;;;;;;;13.18;9.98;;;7.10;99.90;;;;;;5016162;28;20206;-79
2021/10/10 04:11:38;;;;;;;15.82;10.75;;;7.30;99.90;;;;;;5016333;28;20230;-79
2021/10/10 04:14:06;;;;;;;16.08;11.00;;;7.10;99.90;;;;;;5017175;28;20591;-79
2021/10/10 04:16:33;;;;;;;17.67;9.77;;;7.30;99.90;;;;;;5015872;28;20235;-79
2021/10/10 04:19:00;;;;;;;14.20;10.15;;;7.30;99.90;;;;;;5016846;28;20196;-79
2021/10/10 04:21:27;;;;;;;14.52;9.60;;;7.30;99.90;;;;;;5016945;28;20644;-79
2021/10/10 04:23:54;;;;;;;13.88;10.32;;;7.10;99.90;;;;;;5012491;28;20205;-78
2021/10/10 04:26:20;;;;;;;14.52;9.40;;;7.10;99.90;;;;;;5022461;28;20572;-78
2021/10/10 04:28:47;;;;;;;15.70;9.88;;;7.20;99.90;;;;;;5020287;28;20220;-79
2021/10/10 04:31:17;;;;;;;12.95;9.38;;;7.10;99.90;;;;;;5016275;28;20204;-79
2021/10/10 04:33:44;;;;;;;13.93;9.27;;;6.90;99.90;;;;;;5016881;28;20204;-80
2021/10/10 04:36:11;;;;;;;15.85;10.75;;;7.10;99.90;;;;;;5016097;28;20206;-80
2021/10/10 04:38:37;;;;;;;19.40;10.32;;;7.00;99.90;;;;;;4998639;28;20206;-79
2021/10/10 04:41:04;;;;;;;15.20;10.02;;;6.90;99.90;;;;;;4997007;28;20204;-79
2021/10/10 04:43:31;;;;;;;15.85;10.27;;;7.00;99.90;;;;;;4997308;28;20225;-79
2021/10/10 04:45:58;;;;;;;14.50;9.70;;;7.10;99.90;;;;;;4996770;28;20215;-79
2021/10/10 04:48:26;;;;;;;12.13;9.18;;;7.10;99.90;;;;;;4998309;28;20235;-79
2021/10/10 04:50:53;;;;;;;17.23;10.43;;;7.20;99.90;;;;;;5016167;28;20629;-79
2021/10/10 04:53:19;;;;;;;13.82;10.13;;;7.10;99.90;;;;;;5016222;28;20239;-78
2021/10/10 04:55:46;;;;;;;15.05;10.40;;;7.20;99.90;;;;;;5015889;28;20632;-79
2021/10/10 04:58:13;;;;;;;13.32;9.88;;;7.00;99.90;;;;;;5011939;28;20259;-78
2021/10/10 05:00:40;;;;;;;14.77;10.68;;;7.10;99.90;;;;;;5009037;28;20231;-79
2021/10/10 05:03:07;;;;;;;16.38;9.65;;;7.00;99.90;;;;;;5014976;28;20231;-78
2021/10/10 05:05:35;;;;;;;16.25;9.70;;;6.90;99.90;;;;;;5015594;28;20283;-79
2021/10/10 05:08:02;;;;;;;14.00;9.25;;;7.00;99.90;;;;;;5016110;28;20224;-78
2021/10/10 05:10:28;;;;;;;14.13;9.65;;;7.10;99.90;;;;;;5015870;28;20207;-78
2021/10/10 05:12:55;;;;;;;15.80;9.93;;;7.00;99.90;;;;;;5015698;28;20228;-78
2021/10/10 05:15:22;;;;;;;17.02;10.48;;;6.90;99.90;;;;;;5015731;28;20278;-79
2021/10/10 05:17:49;;;;;;;14.20;9.98;;;6.90;99.90;;;;;;5008359;28;20197;-79
2021/10/10 05:20:16;;;;;;;17.10;10.55;;;7.00;99.90;;;;;;5000122;28;20208;-79
2021/10/10 05:22:44;;;;;;;15.82;10.48;;;7.00;99.90;;;;;;5016076;28;20638;-79
2021/10/10 05:25:11;;;;;;;19.77;10.88;;;7.00;99.90;;;;;;5015593;28;20209;-79
2021/10/10 05:27:37;;;;;;;13.93;10.93;;;7.00;99.90;;;;;;5015677;28;20616;-78
2021/10/10 05:30:05;;;;;;;14.40;10.38;;;6.90;99.90;;;;;;5020112;28;20275;-77
2021/10/10 05:32:32;;;;;;;18.73;11.48;;;6.80;99.90;;;;;;5017068;28;20311;-78
2021/10/10 05:34:59;;;;;;;13.77;9.48;;;6.80;99.90;;;;;;5014949;28;20235;-78
2021/10/10 05:37:26;;;;;;;14.20;10.18;;;6.80;99.90;;;;;;5014424;28;20208;-78
2021/10/10 05:39:54;;;;;;;17.98;11.23;;;6.70;99.90;;;;;;5014935;28;20215;-78
2021/10/10 05:42:21;;;;;;;22.02;10.30;;;6.50;99.90;;;;;;5015896;28;20227;-79
2021/10/10 05:44:48;;;;;;;16.65;12.02;;;6.70;99.90;;;;;;5013224;28;20204;-78
2021/10/10 05:47:15;;;;;;;15.35;10.88;;;6.40;99.90;;;;;;5015555;28;20259;-81
2021/10/10 05:49:42;;;;;;;12.20;10.02;;;6.70;99.90;;;;;;5016907;28;20207;-78
2021/10/10 05:52:09;;;;;;;14.82;10.80;;;6.50;99.90;;;;;;5014319;28;20227;-78
2021/10/10 05:54:37;;;;;;;15.32;10.27;;;6.60;99.90;;;;;;5014305;28;20196;-79
2021/10/10 05:57:08;;;;;;;14.10;10.10;;;6.50;99.90;;;;;;5014462;28;20620;-78
2021/10/10 05:59:35;;;;;;;14.05;9.82;;;6.60;99.90;;;;;;5013904;28;20205;-79
2021/10/10 06:02:02;;;;;;;13.52;9.95;;;6.50;99.90;;;;;;5015476;28;20227;-79
2021/10/10 06:04:29;;;;;;;15.10;10.75;;;6.40;99.90;;;;;;5015734;28;20203;-79
2021/10/10 06:06:56;;;;;;;18.08;10.05;;;6.60;99.90;;;;;;5016234;28;20621;-79
2021/10/10 06:09:23;;;;;;;15.70;10.40;;;6.70;99.90;;;;;;5018969;28;20295;-79
2021/10/10 06:11:50;;;;;;;17.08;11.05;;;6.70;99.90;;;;;;5010734;28;20235;-79
2021/10/10 06:14:18;;;;;;;14.23;10.35;;;6.60;99.90;;;;;;4999912;28;20200;-79
2021/10/10 06:16:45;;;;;;;16.63;10.52;;;6.60;99.90;;;;;;5014401;28;20212;-79
2021/10/10 06:19:12;;;;;;;16.38;10.90;;;6.70;99.90;;;;;;5020389;28;20208;-78
2021/10/10 06:21:39;;;;;;;17.45;11.75;;;6.70;99.90;;;;;;5010964;28;20303;-78
2021/10/10 06:24:05;;;;;;;14.75;10.75;;;6.40;99.90;;;;;;5012515;28;20291;-79
2021/10/10 06:26:33;;;;;;;16.40;11.35;;;6.70;99.90;;;;;;5002876;28;20206;-79
2021/10/10 06:28:59;;;;;;;17.17;11.35;;;6.60;99.90;;;;;;5018571;28;20597;-79
2021/10/10 06:31:28;;;;;;;17.90;10.85;;;6.70;99.90;;;;;;5018652;28;20214;-79
2021/10/10 06:33:54;;;;;;;17.65;11.93;;;6.80;99.90;;;;;;5018478;28;20226;-78
2021/10/10 06:36:21;;;;;;;15.90;11.50;;;6.80;99.90;;;;;;5013690;28;20204;-78
2021/10/10 06:38:49;;;;;;;16.08;11.30;;;6.80;99.90;;;;;;5021938;28;20211;-79
2021/10/10 06:41:16;;;;;;;19.70;12.43;;;6.90;99.90;;;;;;5019108;28;20220;-79
2021/10/10 06:43:43;;;;;;;17.50;11.40;;;7.00;99.90;;;;;;5021700;28;20262;-78
2021/10/10 06:46:09;;;;;;;16.17;11.75;;;7.00;99.90;;;;;;5020656;28;20233;-79
2021/10/10 06:48:38;;;;;;;17.75;11.43;;;6.90;99.90;;;;;;5018557;28;20234;-79
2021/10/10 06:51:05;;;;;;;18.13;11.85;;;7.00;99.90;;;;;;5017476;28;20201;-79
2021/10/10 06:53:31;;;;;;;16.92;11.60;;;7.10;99.90;;;;;;5017979;28;20239;-79
2021/10/10 06:56:03;;;;;;;19.00;12.68;;;7.00;99.90;;;;;;5017218;28;20204;-79
2021/10/10 06:58:30;;;;;;;18.40;12.48;;;7.00;99.90;;;;;;5017752;28;20275;-80
2021/10/10 07:00:57;;;;;;;18.23;12.60;;;7.10;99.90;;;;;;5017682;28;20287;-79
2021/10/10 07:03:24;;;;;;;17.05;12.02;;;7.10;99.90;;;;;;5017782;28;20312;-79
2021/10/10 07:05:52;;;;;;;18.15;12.85;;;7.00;99.90;;;;;;5018268;28;20211;-79
2021/10/10 07:08:19;;;;;;;18.60;13.20;;;7.30;99.90;;;;;;5016972;28;20216;-79
2021/10/10 07:10:46;;;;;;;22.10;13.13;;;7.10;99.90;;;;;;5018079;28;20200;-79
2021/10/10 07:13:13;;;;;;;19.02;12.77;;;7.40;99.90;;;;;;5018051;28;20706;-80
2021/10/10 07:15:40;;;;;;;18.13;12.60;;;7.40;99.90;;;;;;5012541;28;20548;-79
2021/10/10 07:18:06;;;;;;;19.35;13.48;;;7.40;99.90;;;;;;5015807;28;20233;-78
2021/10/10 07:20:49;;;;;;;21.10;14.95;;;7.40;99.90;;;;;;5016051;28;20228;-77
2021/10/10 07:23:29;;;;;;;22.92;14.95;;;7.50;99.90;;;;;;4999827;28;20225;-77
2021/10/10 07:25:56;;;;;;;23.38;14.77;;;7.50;99.90;;;;;;5008943;28;20288;-77
2021/10/10 07:28:23;;;;;;;25.60;16.35;;;7.80;99.90;;;;;;5015202;28;20233;-77
2021/10/10 07:30:50;;;;;;;23.58;16.70;;;7.80;99.90;;;;;;5014488;28;20204;-77
2021/10/10 07:33:18;;;;;;;23.50;16.08;;;7.80;99.90;;;;;;5017263;28;20275;-78
2021/10/10 07:35:45;;;;;;;21.30;15.45;;;7.90;99.90;;;;;;5013604;28;20198;-78
2021/10/10 07:38:13;;;;;;;22.52;14.68;;;8.00;99.90;;;;;;4998758;28;20288;-78
2021/10/10 07:40:41;;;;;;;19.00;14.65;;;8.20;99.90;;;;;;4997205;28;20210;-78
2021/10/10 07:43:08;;;;;;;22.42;14.95;;;8.20;99.90;;;;;;5012137;28;20221;-79
2021/10/10 07:45:41;;;;;;;19.30;14.53;;;8.20;99.90;;;;;;5016815;28;20202;-78
2021/10/10 07:48:08;;;;;;;22.30;14.85;;;8.30;99.90;;;;;;5016333;28;20554;-78
2021/10/10 07:50:35;;;;;;;21.85;15.38;;;8.40;99.90;;;;;;5009787;28;20567;-77
2021/10/10 07:53:03;;;;;;;20.33;15.57;;;8.50;99.90;;;;;;4999538;28;20252;-79
2021/10/10 07:55:30;;;;;;;22.58;15.63;;;8.60;99.90;;;;;;5001509;28;20387;-79
2021/10/10 07:57:58;;;;;;;25.73;15.45;;;8.60;99.90;;;;;;5019568;28;20201;-79
2021/10/10 08:00:28;;;;;;;20.27;14.60;;;8.70;99.90;;;;;;5023853;28;20212;-79
2021/10/10 08:02:57;;;;;;;21.75;15.27;;;8.80;99.90;;;;;;5009191;28;20316;-78
2021/10/10 08:05:25;;;;;;;21.75;15.48;;;8.90;99.90;;;;;;5017189;28;20208;-78
2021/10/10 08:07:53;;;;;;;23.07;15.50;;;9.00;99.90;;;;;;5016543;28;20301;-79
2021/10/10 08:10:21;;;;;;;21.00;15.83;;;9.10;99.90;;;;;;5006011;28;20461;-80
2021/10/10 08:12:49;;;;;;;22.57;14.37;;;9.20;99.90;;;;;;5017702;28;20452;-79
2021/10/10 08:15:17;;;;;;;22.23;15.55;;;9.30;99.90;;;;;;5009323;28;20537;-80
2021/10/10 08:17:44;;;;;;;22.77;14.63;;;9.40;99.90;;;;;;5004409;28;20202;-79
2021/10/10 08:20:12;;;;;;;20.87;14.83;;;9.40;99.90;;;;;;5005514;28;20422;-81
2021/10/10 08:22:40;;;;;;;20.67;14.77;;;9.50;99.90;;;;;;4997292;28;20516;-80
2021/10/10 08:25:11;;;;;;;17.90;14.60;;;9.80;99.90;;;;;;5010922;28;20462;-79
2021/10/10 08:27:38;;;;;;;17.90;13.80;;;9.80;99.90;;;;;;5001585;28;20534;-78
2021/10/10 08:30:08;;;;;;;19.47;14.90;;;10.00;99.90;;;;;;5008764;28;20485;-78
2021/10/10 08:32:36;;;;;;;21.77;14.60;;;10.10;99.90;;;;;;5014996;28;20473;-78
2021/10/10 08:35:04;;;;;;;20.77;14.70;;;10.10;99.90;;;;;;5014930;28;20464;-78
2021/10/10 08:37:30;;;;;;;18.93;14.10;;;10.10;99.90;;;;;;5016180;28;20485;-78
2021/10/10 08:39:57;;;;;;;19.10;15.10;;;10.20;99.90;;;;;;5013579;28;20424;-78
2021/10/10 08:42:30;;;;;;;22.70;14.00;;;10.30;99.90;;;;;;4995881;28;20505;-78
2021/10/10 08:45:03;;;;;;;19.40;15.03;;;10.40;99.90;;;;;;5013366;28;20803;-78
2021/10/10 08:47:31;;;;;;;22.27;15.40;;;10.40;99.90;;;;;;5015607;28;20417;-78
2021/10/10 08:50:00;;;;;;;20.83;15.10;;;10.50;99.90;;;;;;5013554;28;20467;-77
2021/10/10 08:52:27;;;;;;;21.53;14.63;;;10.50;99.90;;;;;;5040065;23;20499;-78
2021/10/10 08:54:53;;;;;;;22.47;13.70;;;10.60;99.90;;;;;;5022901;28;20480;-78
2021/10/10 08:57:21;;;;;;;21.83;15.60;;;10.70;99.90;;;;;;5021815;28;20865;-77
2021/10/10 08:59:54;;;;;;;17.17;13.30;;;10.80;99.90;;;;;;5022259;28;20451;-78
2021/10/10 09:02:24;;;;;;;18.20;14.30;;;10.80;99.90;;;;;;5025689;28;20555;-78
2021/10/10 09:04:51;;;;;;;19.47;13.50;;;10.90;99.90;;;;;;5041889;28;20396;-78
2021/10/10 09:07:19;;;;;;;18.97;14.00;;;11.00;99.90;;;;;;5040829;28;20782;-79
2021/10/10 09:09:46;;;;;;;17.60;13.50;;;11.20;99.90;;;;;;5025958;28;20493;-77
2021/10/10 09:12:14;;;;;;;21.07;14.50;;;11.30;99.90;;;;;;5038177;28;20507;-76
2021/10/10 09:14:46;;;;;;;23.83;14.37;;;11.30;99.90;;;;;;5042346;28;20465;-78
2021/10/10 09:17:15;;;;;;;20.00;13.93;;;11.30;99.90;;;;;;5041299;28;21023;-76
2021/10/10 09:19:49;;;;;;;26.60;13.90;;;11.50;99.90;;;;;;5040245;28;20457;-77
2021/10/10 09:22:15;;;;;;;19.23;13.93;;;11.50;99.90;;;;;;5042004;28;20481;-78
2021/10/10 09:24:44;;;;;;;20.43;13.30;;;11.50;99.90;;;;;;5040770;28;20430;-78
2021/10/10 09:27:12;;;;;;;19.63;12.43;;;11.40;99.90;;;;;;5040084;28;20812;-77
2021/10/10 09:29:41;;;;;;;20.80;12.97;;;11.40;99.90;;;;;;5040924;28;20465;-77
2021/10/10 09:32:09;;;;;;;23.10;12.33;;;11.30;99.90;;;;;;5040219;28;20520;-76
2021/10/10 09:34:37;;;;;;;21.63;13.93;;;11.40;99.90;;;;;;5041506;28;20489;-77
2021/10/10 09:37:17;;;;;;;19.50;14.00;;;11.50;99.90;;;;;;5039469;28;20495;-79
2021/10/10 09:39:47;;;;;;;20.27;13.90;;;11.50;99.90;;;;;;5044332;28;20873;-78
2021/10/10 09:42:35;;;;;;;21.60;14.40;;;11.60;99.90;;;;;;5025545;28;20478;-79
2021/10/10 09:45:14;;;;;;;16.60;12.50;;;11.70;99.90;;;;;;5036238;28;20426;-78
2021/10/10 09:47:49;;;;;;;21.13;15.10;;;11.80;99.90;;;;;;5052780;28;20419;-78
2021/10/10 09:50:16;;;;;;;17.40;11.63;;;11.80;99.90;;;;;;5048820;28;20443;-79
2021/10/10 09:52:43;;;;;;;19.00;13.63;;;11.90;99.90;;;;;;5040643;28;20458;-79
2021/10/10 09:55:14;;;;;;;27.70;13.30;;;12.10;99.90;;;;;;5041253;28;20889;-78
2021/10/10 09:57:46;;;;;;;14.80;10.40;;;12.10;99.90;;;;;;5031653;28;20486;-79
2021/10/10 10:00:20;;;;;;;21.43;13.33;;;12.10;99.90;;;;;;5020252;28;20509;-79
2021/10/10 10:02:48;;;;;;;24.13;14.20;;;12.10;99.90;;;;;;5024790;28;20447;-79
2021/10/10 10:05:24;;;;;;;19.43;11.53;;;12.10;99.90;;;;;;5039346;28;20432;-79
2021/10/10 10:07:52;;;;;;;16.57;12.80;;;12.30;99.90;;;;;;5039609;28;20455;-78
2021/10/10 10:10:23;;;;;;;21.40;13.00;;;12.40;99.90;;;;;;5040090;28;20515;-79
2021/10/10 10:12:52;;;;;;;21.97;12.87;;;12.50;99.90;;;;;;5038975;28;20808;-79
2021/10/10 10:15:20;;;;;;;19.00;12.70;;;12.50;99.90;;;;;;5034982;28;20439;-79
2021/10/10 10:17:47;;;;;;;18.40;12.23;;;12.60;99.90;;;;;;5039006;28;20793;-78
2021/10/10 10:20:16;;;;;;;14.50;11.77;;;12.60;99.90;;;;;;5038532;28;20431;-79
2021/10/10 10:22:45;;;;;;;16.20;10.80;;;12.70;99.90;;;;;;5042518;28;20451;-78
2021/10/10 10:25:11;;;;;;;21.03;12.23;;;12.70;99.90;;;;;;5046137;28;20417;-82
2021/10/10 10:27:40;;;;;;;20.47;14.80;;;12.90;99.90;;;;;;5034805;28;20473;-81
2021/10/10 10:30:08;;;;;;;20.43;14.13;;;13.00;99.90;;;;;;5043685;28;20472;-84
2021/10/10 10:32:36;;;;;;;20.63;14.60;;;13.00;99.90;;;;;;5042757;28;20466;-79
2021/10/10 10:35:09;;;;;;;23.57;14.27;;;13.10;99.90;;;;;;5037569;28;20449;-78
2021/10/10 10:37:59;;;;;;;16.37;12.60;;;13.20;99.90;;;;;;5038002;28;20789;-78
2021/10/10 10:40:35;;;;;;;24.17;14.40;;;13.00;99.90;;;;;;5020704;28;20432;-78
2021/10/10 10:43:05;;;;;;;17.20;10.40;;;13.10;99.90;;;;;;5047931;28;20493;-78
2021/10/10 10:45:38;;;;;;;18.43;13.10;;;13.20;99.90;;;;;;5036056;28;20561;-78
2021/10/10 10:48:06;;;;;;;17.67;12.50;;;13.20;99.90;;;;;;5019314;28;20449;-78
2021/10/10 10:50:37;;;;;;;24.33;13.67;;;13.30;99.90;;;;;;5021351;28;21022;-78
2021/10/10 10:53:06;;;;;;;18.97;12.67;;;13.30;99.90;;;;;;5034673;28;20459;-78
2021/10/10 10:55:35;;;;;;;17.40;12.13;;;13.30;99.90;;;;;;5037604;28;20464;-79
2021/10/10 10:58:09;;;;;;;20.63;13.23;;;13.40;99.90;;;;;;5022223;28;20499;-78
2021/10/10 11:00:38;;;;;;;20.00;13.50;;;13.40;99.90;;;;;;5036199;28;20966;-79
2021/10/10 11:03:09;;;;;;;17.20;12.13;;;13.60;99.90;;;;;;5023320;28;20476;-79
2021/10/10 11:05:43;;;;;;;17.67;13.83;;;13.70;99.90;;;;;;5036210;28;20441;-80
2021/10/10 11:08:30;;;;;;;17.53;12.17;;;13.70;99.90;;;;;;5035679;28;20864;-81
2021/10/10 11:11:24;;;;;;;17.50;12.20;;;13.80;99.90;;;;;;5028119;28;20481;-79
2021/10/10 11:13:54;;;;;;;17.03;12.10;;;13.80;99.90;;;;;;5039384;28;20997;-82
2021/10/10 11:16:29;;;;;;;18.90;11.90;;;13.90;99.90;;;;;;5035786;28;20508;-82
2021/10/10 11:18:58;;;;;;;18.07;12.60;;;14.00;99.90;;;;;;5040385;28;20440;-79
2021/10/10 11:21:27;;;;;;;16.30;12.70;;;14.10;99.90;;;;;;5030622;28;20425;-79
2021/10/10 11:23:57;;;;;;;17.20;11.87;;;14.00;99.90;;;;;;5021830;28;20441;-78
2021/10/10 11:26:24;;;;;;;18.47;13.50;;;13.90;99.90;;;;;;5024312;28;20496;-79
2021/10/10 11:28:55;;;;;;;20.90;12.30;;;13.90;99.90;;;;;;5031303;28;20507;-78
2021/10/10 11:31:24;;;;;;;16.53;12.13;;;14.00;99.90;;;;;;5035092;28;20440;-79
2021/10/10 11:33:56;;;;;;;17.73;13.43;;;14.00;99.90;;;;;;5032847;28;20611;-80
2021/10/10 11:36:33;;;;;;;16.83;12.53;;;14.00;99.90;;;;;;5022688;28;20414;-79
2021/10/10 11:39:02;;;;;;;18.03;13.30;;;13.90;99.90;;;;;;5027790;28;20496;-80
2021/10/10 11:41:30;;;;;;;16.97;11.80;;;13.90;99.90;;;;;;5022177;28;20562;-81
2021/10/10 11:44:01;;;;;;;19.13;13.00;;;13.90;99.90;;;;;;5034876;28;20987;-81
2021/10/10 11:46:41;;;;;;;19.40;12.90;;;13.80;99.90;;;;;;5042380;28;20476;-79
2021/10/10 11:49:35;;;;;;;20.00;12.60;;;13.70;99.90;;;;;;5041881;28;20477;-79
2021/10/10 11:52:07;;;;;;;15.70;12.00;;;13.90;99.90;;;;;;5036092;28;20743;-80
2021/10/10 11:54:38;;;;;;;18.80;12.40;;;13.90;99.90;;;;;;5027310;28;20476;-79
2021/10/10 11:57:08;;;;;;;17.50;12.27;;;13.90;99.90;;;;;;5037070;28;20507;-80
2021/10/10 11:59:37;;;;;;;21.87;13.00;;;14.00;99.90;;;;;;5037137;28;20978;-80
2021/10/10 12:02:04;;;;;;;14.93;12.57;;;14.20;99.90;;;;;;5038204;28;20803;-79
2021/10/10 12:04:31;;;;;;;18.10;12.30;;;14.20;99.90;;;;;;5047411;28;20451;-78
2021/10/10 12:06:58;;;;;;;21.30;11.53;;;14.30;99.90;;;;;;5031728;28;20425;-78
2021/10/10 12:09:25;;;;;;;15.10;11.60;;;14.20;99.90;;;;;;5025634;28;20452;-79
2021/10/10 12:12:06;;;;;;;19.67;12.43;;;14.30;99.90;;;;;;5038480;28;20490;-79
2021/10/10 12:14:48;;;;;;;14.80;9.70;;;14.30;99.90;;;;;;5029658;28;20520;-79
2021/10/10 12:17:32;;;;;;;16.00;11.00;;;14.50;99.60;;;;;;5053754;28;20434;-79
2021/10/10 12:20:01;;;;;;;14.53;10.83;;;14.40;99.70;;;;;;5049199;28;20561;-80
2021/10/10 12:22:28;;;;;;;17.90;10.90;;;14.20;99.70;;;;;;5037716;28;20471;-80
2021/10/10 12:24:55;;;;;;;16.00;10.30;;;14.20;99.90;;;;;;5024391;28;20527;-79
2021/10/10 12:27:26;;;;;;;18.60;11.43;;;14.40;99.20;;;;;;5029987;28;20817;-79
2021/10/10 12:29:55;;;;;;;12.77;10.40;;;14.40;99.00;;;;;;5036893;28;20993;-78
2021/10/10 12:32:23;;;;;;;15.30;11.27;;;14.20;98.90;;;;;;5035770;28;20787;-78
2021/10/10 12:34:54;;;;;;;14.80;10.90;;;14.30;99.10;;;;;;5037084;28;20459;-79
2021/10/10 12:37:23;;;;;;;15.77;11.53;;;14.30;99.20;;;;;;5037648;28;20482;-78
2021/10/10 12:39:51;;;;;;;16.50;11.00;;;14.40;98.10;;;;;;5041696;28;20425;-79
2021/10/10 12:42:19;;;;;;;14.13;10.13;;;14.40;98.10;;;;;;5037753;28;20487;-79
2021/10/10 12:45:10;;;;;;;16.97;11.17;;;14.50;98.00;;;;;;5037731;28;20517;-80